createdAt,value
2023-07-21T00:00:16.363Z,68.10
2023-07-21T00:02:51.482Z,67.74
2023-07-21T00:05:20.470Z,67.16
2023-07-21T00:07:49.090Z,67.56
2023-07-21T00:10:16.716Z,68.27
2023-07-21T00:12:48.004Z,68.69
2023-07-21T00:15:18.096Z,68.64
2023-07-21T00:17:45.944Z,69.07
2023-07-21T00:20:18.930Z,68.88
2023-07-21T00:22:47.938Z,69.34
2023-07-21T00:25:15.848Z,69.81
2023-07-21T00:27:44.833Z,70.34
2023-07-21T00:30:14.085Z,71.29
2023-07-21T00:32:43.581Z,71.04
2023-07-21T00:35:11.928Z,71.42
2023-07-21T00:37:40.492Z,71.64
2023-07-21T00:40:11.726Z,72.02
2023-07-21T00:42:39.536Z,72.40
2023-07-21T00:45:08.594Z,73.01
2023-07-21T00:47:37.453Z,73.45
2023-07-21T00:50:06.098Z,73.35
2023-07-21T00:52:33.856Z,72.96
2023-07-21T00:55:02.413Z,72.31
2023-07-21T00:57:33.736Z,71.58
2023-07-21T01:00:02.143Z,71.52
2023-07-21T01:02:31.989Z,70.71
2023-07-21T01:05:02.301Z,70.05
2023-07-21T01:07:32.409Z,69.36
2023-07-21T01:10:00.809Z,69.13
2023-07-21T01:12:28.755Z,68.52
2023-07-21T01:14:57.894Z,68.76
2023-07-21T01:17:29.606Z,69.22
2023-07-21T01:19:59.880Z,69.50
2023-07-21T01:22:32.182Z,69.19
2023-07-21T01:25:12.104Z,69.41
2023-07-21T01:27:42.242Z,70.44
2023-07-21T01:30:12.929Z,70.63
2023-07-21T01:32:42.649Z,71.35
2023-07-21T01:35:14.046Z,71.57
2023-07-21T01:37:43.194Z,71.48
2023-07-21T01:40:16.287Z,72.14
2023-07-21T01:42:45.590Z,72.02
2023-07-21T01:45:14.193Z,71.73
2023-07-21T01:47:43.372Z,71.81
2023-07-21T01:50:14.533Z,71.93
2023-07-21T01:52:45.274Z,71.06
2023-07-21T01:55:20.882Z,70.41
2023-07-21T01:57:52.853Z,70.41
2023-07-21T02:00:23.842Z,70.60
2023-07-21T02:02:53.358Z,70.90
2023-07-21T02:05:21.749Z,71.37
2023-07-21T02:07:49.398Z,72.38
2023-07-21T02:10:18.872Z,72.68
2023-07-21T02:12:52.780Z,72.53
2023-07-21T02:15:21.028Z,73.57
2023-07-21T02:17:49.187Z,73.45
2023-07-21T02:20:17.381Z,72.47
2023-07-21T02:22:45.109Z,71.29
2023-07-21T02:25:14.822Z,70.52
2023-07-21T02:27:44.337Z,70.79
2023-07-21T02:30:12.652Z,71.13
2023-07-21T02:32:40.379Z,71.50
2023-07-21T02:35:09.590Z,72.37
2023-07-21T02:37:38.022Z,71.80
2023-07-21T02:40:07.458Z,72.79
2023-07-21T02:42:36.137Z,72.08
2023-07-21T02:45:06.118Z,72.97
2023-07-21T02:47:34.087Z,73.13
2023-07-21T02:50:01.771Z,73.34
2023-07-21T02:52:29.603Z,73.50
2023-07-21T02:54:58.689Z,74.33
2023-07-21T02:57:27.050Z,74.39
2023-07-21T02:59:55.442Z,74.27
2023-07-21T03:02:35.170Z,74.57
2023-07-21T03:05:05.102Z,74.78
2023-07-21T03:07:33.096Z,74.53
2023-07-21T03:10:06.449Z,74.03
2023-07-21T03:12:36.612Z,74.44
2023-07-21T03:15:13.355Z,72.91
2023-07-21T03:18:00.227Z,71.87
2023-07-21T03:20:31.082Z,70.67
2023-07-21T03:22:58.723Z,69.68
2023-07-21T03:25:26.521Z,69.42
2023-07-21T03:27:54.120Z,70.14
2023-07-21T03:30:23.841Z,69.88
2023-07-21T03:33:02.939Z,69.74
2023-07-21T03:35:34.047Z,70.71
2023-07-21T03:38:01.860Z,70.71
2023-07-21T03:40:30.341Z,71.63
2023-07-21T03:42:57.931Z,71.98
2023-07-21T03:45:27.058Z,72.08
2023-07-21T03:47:54.697Z,70.96
2023-07-21T03:50:24.715Z,70.97
2023-07-21T03:52:54.112Z,71.75
2023-07-21T03:55:24.310Z,70.96
2023-07-21T03:57:52.000Z,70.81
2023-07-21T04:00:21.206Z,70.70
2023-07-21T04:02:48.939Z,70.41
2023-07-21T04:05:19.113Z,69.87
2023-07-21T04:07:48.204Z,70.29
2023-07-21T04:10:15.914Z,70.88
2023-07-21T04:12:43.556Z,71.66
2023-07-21T04:15:11.413Z,71.48
2023-07-21T04:17:39.082Z,70.65
2023-07-21T04:20:11.065Z,70.68
2023-07-21T04:22:39.645Z,70.39
2023-07-21T04:25:10.244Z,70.25
2023-07-21T04:27:37.904Z,70.63
2023-07-21T04:30:09.473Z,70.04
2023-07-21T04:32:39.810Z,70.03
2023-07-21T04:35:10.172Z,69.04
2023-07-21T04:37:40.371Z,68.68
2023-07-21T04:40:12.005Z,68.17
2023-07-21T04:42:41.442Z,67.86
2023-07-21T04:45:12.822Z,67.65
2023-07-21T04:47:50.270Z,67.47
2023-07-21T04:50:22.718Z,67.00
2023-07-21T04:52:50.484Z,66.83
2023-07-21T04:55:20.345Z,66.60
2023-07-21T04:57:49.155Z,67.12
2023-07-21T05:00:17.653Z,66.96
2023-07-21T05:02:45.411Z,66.39
2023-07-21T05:05:14.181Z,66.23
2023-07-21T05:07:48.979Z,66.02
2023-07-21T05:10:18.742Z,66.03
2023-07-21T05:12:46.454Z,66.12
2023-07-21T05:15:31.673Z,66.72
2023-07-21T05:18:14.456Z,66.71
2023-07-21T05:21:09.067Z,66.16
2023-07-21T05:23:46.790Z,66.35
2023-07-21T05:26:18.309Z,65.41
2023-07-21T05:28:47.740Z,65.35
2023-07-21T05:31:16.381Z,65.31
2023-07-21T05:33:54.488Z,65.47
2023-07-21T05:36:23.506Z,65.74
2023-07-21T05:38:52.961Z,65.86
2023-07-21T05:41:23.424Z,65.25
2023-07-21T05:43:51.223Z,65.00
2023-07-21T05:46:19.087Z,65.93
2023-07-21T05:48:55.361Z,66.38
2023-07-21T05:51:23.849Z,66.23
2023-07-21T05:53:55.565Z,66.15
2023-07-21T05:56:27.845Z,66.59
2023-07-21T05:59:07.486Z,65.14
2023-07-21T06:01:37.217Z,65.29
2023-07-21T06:04:06.589Z,64.98
2023-07-21T06:06:35.743Z,65.01
2023-07-21T06:09:40.069Z,65.69
2023-07-21T06:12:25.110Z,65.87
2023-07-21T06:15:12.786Z,64.81
2023-07-21T06:17:55.425Z,63.53
2023-07-21T06:20:26.020Z,62.75
2023-07-21T06:22:54.392Z,64.55
2023-07-21T06:25:23.747Z,63.89
2023-07-21T06:27:59.361Z,62.55
2023-07-21T06:30:27.168Z,61.63
2023-07-21T06:32:54.971Z,61.06
2023-07-21T06:35:36.384Z,60.62
2023-07-21T06:38:23.014Z,60.75
2023-07-21T06:40:57.661Z,61.13
2023-07-21T06:43:34.987Z,61.51
2023-07-21T06:46:14.788Z,61.52
2023-07-21T06:49:01.272Z,61.74
2023-07-21T06:51:49.214Z,61.76
2023-07-21T06:54:16.871Z,61.27
2023-07-21T06:56:44.733Z,61.06
2023-07-21T06:59:13.756Z,60.73
2023-07-21T07:01:42.108Z,59.60
2023-07-21T07:04:10.026Z,60.22
2023-07-21T07:06:37.743Z,60.07
2023-07-21T07:09:05.391Z,58.99
2023-07-21T07:11:33.110Z,59.25
2023-07-21T07:14:00.781Z,58.37
2023-07-21T07:16:29.845Z,58.89
2023-07-21T07:18:57.534Z,58.83
2023-07-21T07:21:26.233Z,58.58
2023-07-21T07:23:54.144Z,58.19
2023-07-21T07:26:23.035Z,58.02
2023-07-21T07:28:50.622Z,57.05
2023-07-21T07:31:18.253Z,56.56
2023-07-21T07:33:47.313Z,55.97
2023-07-21T07:36:15.311Z,55.21
2023-07-21T07:38:42.890Z,54.86
2023-07-21T07:41:10.880Z,54.20
2023-07-21T07:43:40.026Z,54.17
2023-07-21T07:46:09.377Z,53.71
2023-07-21T07:48:37.398Z,52.75
2023-07-21T07:51:07.625Z,51.38
2023-07-21T07:53:36.228Z,49.68
2023-07-21T07:56:04.714Z,51.40
2023-07-21T07:58:33.840Z,50.77
2023-07-21T08:01:05.320Z,51.01
2023-07-21T08:03:33.728Z,51.32
2023-07-21T08:06:01.582Z,52.01
2023-07-21T08:08:30.609Z,51.05
2023-07-21T08:10:58.284Z,49.19
2023-07-21T08:13:26.105Z,49.12
2023-07-21T08:15:53.808Z,49.80
2023-07-21T08:18:21.521Z,49.56
2023-07-21T08:20:52.963Z,44.17
2023-07-21T08:23:29.673Z,44.26
2023-07-21T08:25:59.547Z,44.23
2023-07-21T08:28:27.140Z,42.95
2023-07-21T08:30:58.798Z,43.20
2023-07-21T08:33:27.963Z,41.21
2023-07-21T08:35:55.647Z,41.23
2023-07-21T08:38:23.804Z,41.00
2023-07-21T08:40:53.959Z,42.37
2023-07-21T08:43:23.379Z,42.79
2023-07-21T08:45:52.717Z,40.57
2023-07-21T08:48:21.649Z,40.83
2023-07-21T08:50:50.612Z,39.46
2023-07-21T08:53:18.257Z,40.40
2023-07-21T08:55:46.425Z,41.65
2023-07-21T08:58:15.373Z,40.19
2023-07-21T09:00:44.327Z,41.39
2023-07-21T09:03:12.172Z,39.66
2023-07-21T09:05:42.133Z,40.54
2023-07-21T09:08:20.482Z,40.34
2023-07-21T09:10:48.260Z,42.08
2023-07-21T09:13:17.031Z,43.00
2023-07-21T09:15:54.428Z,43.30
2023-07-21T09:18:30.101Z,42.30
2023-07-21T09:20:58.786Z,42.06
2023-07-21T09:23:30.548Z,41.18
2023-07-21T09:26:00.768Z,41.32
2023-07-21T09:28:42.556Z,41.59
2023-07-21T09:31:13.741Z,41.34
2023-07-21T09:33:43.172Z,41.30
2023-07-21T09:36:12.481Z,40.94
2023-07-21T09:38:41.577Z,40.69
2023-07-21T09:41:11.448Z,40.91
2023-07-21T09:43:39.696Z,38.77
2023-07-21T09:48:43.010Z,39.08
2023-07-21T09:51:12.136Z,38.09
2023-07-21T09:53:41.358Z,38.83
2023-07-21T09:56:10.228Z,38.94
2023-07-21T09:58:43.311Z,38.41
2023-07-21T10:01:12.004Z,37.46
2023-07-21T10:03:43.351Z,38.30
2023-07-21T10:06:11.618Z,37.64
2023-07-21T10:08:40.882Z,37.48
2023-07-21T10:11:09.341Z,37.45
2023-07-21T10:13:45.153Z,36.06
2023-07-21T10:16:13.397Z,36.79
2023-07-21T10:19:02.021Z,37.84
2023-07-21T10:21:36.048Z,38.68
2023-07-21T10:24:05.527Z,37.74
2023-07-21T10:26:33.257Z,36.82
2023-07-21T10:29:16.342Z,36.46
2023-07-21T10:31:53.325Z,36.51
2023-07-21T10:34:26.193Z,36.90
2023-07-21T10:37:03.205Z,37.63
2023-07-21T10:39:32.642Z,37.32
2023-07-21T10:42:01.899Z,37.35
2023-07-21T10:44:37.222Z,37.28
2023-07-21T10:47:06.132Z,38.70
2023-07-21T10:49:35.950Z,39.11
2023-07-21T10:52:05.331Z,38.00
2023-07-21T10:54:33.176Z,38.85
2023-07-21T10:57:01.857Z,39.46
2023-07-21T10:59:32.736Z,39.89
2023-07-21T11:02:00.519Z,40.24
2023-07-21T11:04:28.335Z,39.61
2023-07-21T11:06:59.246Z,40.39
2023-07-21T11:09:28.106Z,40.58
2023-07-21T11:11:59.461Z,40.90
2023-07-21T11:14:29.596Z,39.55
2023-07-21T11:16:59.042Z,39.23
2023-07-21T11:19:28.599Z,38.40
2023-07-21T11:22:00.080Z,38.93
2023-07-21T11:24:30.060Z,39.27
2023-07-21T11:27:05.473Z,39.56
2023-07-21T11:29:36.707Z,38.74
2023-07-21T11:32:17.981Z,39.25
2023-07-21T11:34:46.101Z,38.31
2023-07-21T11:37:16.300Z,39.07
2023-07-21T11:39:44.106Z,39.48
2023-07-21T11:42:11.909Z,39.03
2023-07-21T11:44:39.572Z,39.21
2023-07-21T11:47:11.193Z,39.11
2023-07-21T11:49:40.756Z,38.25
2023-07-21T11:52:09.597Z,37.97
2023-07-21T11:54:44.164Z,38.70
2023-07-21T11:57:13.125Z,37.59
2023-07-21T11:59:41.075Z,39.14
2023-07-21T12:02:10.542Z,39.93
2023-07-21T12:04:39.370Z,40.97
2023-07-21T12:07:08.460Z,41.61
2023-07-21T12:09:36.712Z,40.64
2023-07-21T12:12:06.420Z,41.26
2023-07-21T12:14:34.147Z,41.93
2023-07-21T12:17:02.009Z,41.89
2023-07-21T12:19:30.085Z,43.22
2023-07-21T12:21:58.965Z,43.33
2023-07-21T12:24:26.812Z,44.26
2023-07-21T12:26:55.064Z,45.33
2023-07-21T12:29:37.585Z,45.47
2023-07-21T12:32:11.150Z,46.16
2023-07-21T12:34:41.933Z,45.89
2023-07-21T12:37:10.299Z,45.24
2023-07-21T12:39:38.625Z,46.11
2023-07-21T12:42:08.421Z,46.21
2023-07-21T12:44:38.052Z,46.66
2023-07-21T12:47:13.923Z,47.59
2023-07-21T12:49:42.545Z,48.64
2023-07-21T12:52:10.164Z,49.70
2023-07-21T12:54:37.818Z,51.52
2023-07-21T12:57:10.027Z,52.04
2023-07-21T12:59:39.052Z,51.42
2023-07-21T13:02:08.004Z,52.44
2023-07-21T13:04:36.250Z,53.06
2023-07-21T13:07:09.565Z,53.45
2023-07-21T13:09:37.771Z,54.50
2023-07-21T13:12:06.302Z,55.59
2023-07-21T13:14:34.048Z,56.07
2023-07-21T13:17:04.857Z,56.67
2023-07-21T13:19:32.472Z,58.02
2023-07-21T13:22:02.266Z,59.22
2023-07-21T13:24:29.988Z,60.93
2023-07-21T13:26:57.837Z,62.66
2023-07-21T13:29:25.566Z,64.40
2023-07-21T13:31:53.219Z,65.03
2023-07-21T13:34:22.162Z,66.77
2023-07-21T13:36:49.830Z,66.93
2023-07-21T13:39:17.765Z,66.94
2023-07-21T13:41:46.111Z,67.87
2023-07-21T13:44:13.696Z,69.13
2023-07-21T13:46:41.437Z,69.22
2023-07-21T13:49:09.588Z,68.90
2023-07-21T13:51:38.668Z,70.13
2023-07-21T13:54:06.508Z,70.67
2023-07-21T13:56:34.296Z,70.19
2023-07-21T13:59:01.940Z,69.38
2023-07-21T14:01:29.648Z,68.65
2023-07-21T14:03:57.697Z,69.12
2023-07-21T14:06:25.525Z,68.73
2023-07-21T14:08:54.896Z,67.22
2023-07-21T14:11:22.569Z,65.46
2023-07-21T14:13:50.157Z,64.15
2023-07-21T14:16:17.788Z,62.95
2023-07-21T14:18:45.666Z,59.06
2023-07-21T14:21:13.268Z,56.50
2023-07-21T14:23:41.566Z,54.77
2023-07-21T14:26:10.558Z,52.33
2023-07-21T14:28:38.278Z,49.69
2023-07-21T14:31:07.550Z,47.32
2023-07-21T14:33:35.498Z,43.81
2023-07-21T14:36:03.174Z,41.89
2023-07-21T14:38:32.665Z,41.87
2023-07-21T14:41:02.001Z,42.66
2023-07-21T14:43:31.555Z,41.92
2023-07-21T14:45:59.885Z,41.44
2023-07-21T14:48:27.550Z,37.25
2023-07-21T14:50:55.307Z,36.33
2023-07-21T14:53:23.892Z,36.22
2023-07-21T14:55:51.591Z,34.95
2023-07-21T14:58:19.276Z,41.22
2023-07-21T15:00:49.492Z,43.62
2023-07-21T15:03:17.335Z,43.62
2023-07-21T15:05:45.149Z,41.84
2023-07-21T15:08:12.861Z,43.63
2023-07-21T15:10:40.614Z,46.15
2023-07-21T15:13:08.201Z,46.49
2023-07-21T15:15:36.067Z,45.91
2023-07-21T15:18:05.353Z,47.17
2023-07-21T15:20:33.112Z,46.78
2023-07-21T15:23:00.791Z,46.27
2023-07-21T15:25:28.741Z,42.27
2023-07-21T15:27:56.344Z,39.92
2023-07-21T15:30:24.120Z,33.24
2023-07-21T15:32:52.911Z,33.37
2023-07-21T15:35:22.300Z,31.13
2023-07-21T15:37:50.810Z,34.44
2023-07-21T15:40:19.796Z,35.88
2023-07-21T15:42:47.675Z,38.09
2023-07-21T15:45:15.561Z,37.16
2023-07-21T15:47:43.270Z,34.67
2023-07-21T15:50:12.556Z,32.54
2023-07-21T15:52:42.177Z,32.37
2023-07-21T15:55:12.099Z,33.03
2023-07-21T15:57:40.312Z,34.28
2023-07-21T16:00:14.553Z,37.45
2023-07-21T16:02:42.270Z,40.46
2023-07-21T16:05:10.278Z,40.61
2023-07-21T16:07:37.948Z,43.02
2023-07-21T16:10:08.682Z,46.05
2023-07-21T16:12:36.461Z,45.98
2023-07-21T16:15:05.292Z,49.44
2023-07-21T16:17:33.013Z,49.63
2023-07-21T16:20:01.312Z,50.47
2023-07-21T16:22:29.107Z,50.95
2023-07-21T16:24:56.715Z,50.31
2023-07-21T16:27:26.076Z,50.67
2023-07-21T16:29:53.645Z,49.74
2023-07-21T16:32:21.418Z,49.85
2023-07-21T16:34:49.063Z,52.40
2023-07-21T16:37:16.690Z,51.47
2023-07-21T16:39:45.366Z,48.47
2023-07-21T16:42:12.983Z,44.64
2023-07-21T16:44:41.995Z,40.47
2023-07-21T16:47:09.634Z,40.89
2023-07-21T16:49:37.322Z,39.52
2023-07-21T16:52:05.449Z,39.14
2023-07-21T16:54:33.113Z,35.98
2023-07-21T16:57:00.804Z,34.88
2023-07-21T16:59:30.356Z,33.88
2023-07-21T17:02:01.045Z,32.10
2023-07-21T17:04:32.867Z,30.88
2023-07-21T17:07:00.809Z,29.12
2023-07-21T17:09:28.488Z,28.53
2023-07-21T17:11:56.158Z,27.48
2023-07-21T17:14:23.890Z,26.53
2023-07-21T17:16:51.575Z,26.25
2023-07-21T17:19:22.868Z,26.45
2023-07-21T17:21:50.563Z,28.28
2023-07-21T17:24:18.197Z,27.69
2023-07-21T17:26:45.862Z,28.41
2023-07-21T17:29:13.539Z,29.63
2023-07-21T17:31:41.332Z,29.32
2023-07-21T17:34:09.117Z,27.66
2023-07-21T17:36:38.057Z,28.85
2023-07-21T17:39:06.246Z,28.25
2023-07-21T17:41:33.912Z,28.66
2023-07-21T17:44:01.545Z,27.91
2023-07-21T17:46:29.305Z,28.79
2023-07-21T17:48:57.178Z,26.82
2023-07-21T17:51:25.431Z,27.09
2023-07-21T17:53:56.982Z,30.31
2023-07-21T17:56:24.998Z,29.00
2023-07-21T17:58:53.094Z,28.48
2023-07-21T18:01:20.858Z,28.47
2023-07-21T18:03:50.838Z,27.86
2023-07-21T18:06:18.520Z,27.89
2023-07-21T18:08:46.167Z,28.39
2023-07-21T18:11:15.223Z,28.56
2023-07-21T18:13:42.877Z,31.12
2023-07-21T18:16:14.824Z,32.19
2023-07-21T18:18:42.572Z,33.13
2023-07-21T18:21:11.771Z,34.16
2023-07-21T18:23:39.907Z,35.17
2023-07-21T18:26:07.909Z,37.08
2023-07-21T18:32:50.453Z,41.34
2023-07-21T18:35:18.152Z,43.35
2023-07-21T18:37:45.827Z,44.14
2023-07-21T18:40:16.322Z,44.88
2023-07-21T18:42:49.811Z,46.43
2023-07-21T18:45:18.707Z,48.27
2023-07-21T18:47:46.691Z,49.64
2023-07-21T18:50:15.944Z,49.22
2023-07-21T18:56:42.623Z,51.96
2023-07-21T18:59:10.248Z,53.01
2023-07-21T19:01:38.834Z,53.59
2023-07-21T19:04:06.511Z,53.99
2023-07-21T19:06:35.516Z,54.67
2023-07-21T19:09:03.362Z,55.22
2023-07-21T19:11:31.122Z,56.12
2023-07-21T19:14:00.905Z,56.57
2023-07-21T19:16:30.675Z,57.07
2023-07-21T19:18:58.602Z,57.75
2023-07-21T19:21:26.760Z,58.59
2023-07-21T19:23:55.924Z,58.49
2023-07-21T19:26:23.689Z,59.29
2023-07-21T19:28:51.286Z,59.89
2023-07-21T19:31:19.620Z,59.83
2023-07-21T19:33:47.341Z,60.92
2023-07-21T19:36:15.259Z,60.87
2023-07-21T19:38:43.150Z,60.94
2023-07-21T19:41:13.593Z,61.79
2023-07-21T19:43:41.317Z,62.27
2023-07-21T19:46:14.146Z,61.71
2023-07-21T19:48:41.972Z,62.60
2023-07-21T19:51:12.770Z,63.19
2023-07-21T19:53:41.506Z,63.07
2023-07-21T19:56:13.563Z,63.54
2023-07-21T19:58:41.266Z,63.60
2023-07-21T20:01:09.124Z,63.58
2023-07-21T20:03:41.098Z,63.92
2023-07-21T20:06:10.691Z,64.88
2023-07-21T20:08:38.631Z,64.74
2023-07-21T20:11:06.508Z,65.07
2023-07-21T20:13:35.994Z,65.63
2023-07-21T20:16:04.034Z,65.90
2023-07-21T20:18:31.701Z,66.84
2023-07-21T20:20:59.353Z,66.05
2023-07-21T20:23:27.255Z,65.75
2023-07-21T20:25:55.604Z,66.69
2023-07-21T20:28:23.407Z,66.50
2023-07-21T20:30:52.342Z,67.16
2023-07-21T20:33:20.021Z,67.15
2023-07-21T20:35:48.415Z,66.80
2023-07-21T20:38:17.689Z,66.60
2023-07-21T20:40:45.948Z,67.80
2023-07-21T20:43:13.607Z,67.48
2023-07-21T20:45:43.218Z,67.85
2023-07-21T20:48:12.204Z,68.51
2023-07-21T20:50:39.839Z,68.65
2023-07-21T20:53:07.501Z,67.60
2023-07-21T20:55:35.161Z,68.26
2023-07-21T20:58:03.397Z,67.95
2023-07-21T21:00:31.225Z,67.99
2023-07-21T21:02:59.051Z,69.01
2023-07-21T21:05:28.055Z,69.03
2023-07-21T21:07:55.965Z,68.94
2023-07-21T21:10:23.746Z,68.64
2023-07-21T21:12:51.325Z,68.57
2023-07-21T21:15:19.960Z,68.28
2023-07-21T21:17:47.641Z,68.90
2023-07-21T21:20:15.554Z,68.77
2023-07-21T21:22:44.543Z,69.24
2023-07-21T21:25:12.177Z,68.78
2023-07-21T21:27:39.800Z,69.30
2023-07-21T21:30:08.668Z,69.57
2023-07-21T21:32:36.359Z,70.14
2023-07-21T21:35:04.463Z,70.58
2023-07-21T21:37:32.112Z,70.96
2023-07-21T21:40:01.072Z,71.36
2023-07-21T21:42:28.660Z,71.99
2023-07-21T21:44:56.334Z,71.95
2023-07-21T21:47:23.953Z,71.58
2023-07-21T21:49:51.626Z,71.64
2023-07-21T21:52:19.385Z,70.65
2023-07-21T21:54:47.272Z,70.96
2023-07-21T21:57:16.246Z,71.86
2023-07-21T21:59:43.826Z,71.79
2023-07-21T22:02:11.481Z,72.10
2023-07-21T22:04:39.126Z,72.12
2023-07-21T22:07:06.857Z,71.22
2023-07-21T22:09:34.485Z,71.73
2023-07-21T22:12:02.447Z,71.29
2023-07-21T22:14:31.459Z,71.23
2023-07-21T22:16:59.087Z,71.95
2023-07-21T22:19:26.744Z,70.28
2023-07-21T22:21:54.370Z,70.41
2023-07-21T22:24:21.939Z,69.34
2023-07-21T22:26:49.539Z,70.67
2023-07-21T22:29:17.433Z,69.75
2023-07-21T22:31:46.647Z,70.19
2023-07-21T22:34:15.100Z,70.03
2023-07-21T22:36:42.686Z,70.93
2023-07-21T22:39:10.285Z,70.47
2023-07-21T22:41:37.904Z,70.21
2023-07-21T22:44:06.019Z,70.72
2023-07-21T22:46:34.794Z,70.22
2023-07-21T22:49:04.538Z,71.28
2023-07-21T22:51:32.348Z,71.20
2023-07-21T22:54:00.028Z,70.65
2023-07-21T22:56:27.891Z,71.10
2023-07-21T22:58:56.030Z,70.77
2023-07-21T23:01:23.804Z,70.90
2023-07-21T23:03:51.585Z,71.12
2023-07-21T23:06:20.613Z,71.20
2023-07-21T23:08:48.248Z,71.53
2023-07-21T23:11:15.935Z,71.54
2023-07-21T23:13:43.589Z,71.71
2023-07-21T23:16:11.331Z,71.87
2023-07-21T23:18:39.017Z,71.69
2023-07-21T23:21:06.694Z,72.02
2023-07-21T23:23:35.691Z,72.21
2023-07-21T23:26:06.063Z,72.76
2023-07-21T23:28:33.765Z,72.65
2023-07-21T23:31:04.598Z,72.35
2023-07-21T23:33:32.799Z,72.92
2023-07-21T23:36:00.414Z,73.03
2023-07-21T23:38:28.068Z,73.13
2023-07-21T23:40:57.164Z,73.54
2023-07-21T23:43:25.253Z,73.58
2023-07-21T23:45:59.123Z,73.28
2023-07-21T23:48:27.497Z,72.58
2023-07-21T23:50:55.116Z,73.06
2023-07-21T23:53:22.989Z,73.19
2023-07-21T23:55:50.827Z,74.20
2023-07-21T23:58:19.892Z,74.49
